Rochelle, Illinois
Current Conditions -  °F | °C
As of 12:35 AM on Sunday 21 Dec 2014 (Local Time) from KRPJ Reporting Station
Haze Haze  
Wind Chill: 31°   Ceiling: 3300
Heat Index: 31°   Visibility: 5mi
Dew Point: 29°   Wind: 3mph
Humidity: 94%   Direction: 190°S
Pressure: 30.21"   Gusts: NA
Location:  41.93°N, 89.07°W
Report Text: KRPJ 210635Z AUTO 19003KT 5SM BR SCT015 OVC033 M01/M02 A3021 RMK AO2 T10071016
Loading
Personal Weather Stations






























Interactive Weather Map New forecast layout! Learn more

10-Day Weather Forecast

Advertisements
Track Severe Weather on mobile